createdAt,value
2023-03-26T00:00:18.544Z,85.40
2023-03-26T00:01:39.328Z,85.40
2023-03-26T00:02:59.730Z,85.20
2023-03-26T00:04:20.590Z,85.30
2023-03-26T00:05:41.620Z,85.40
2023-03-26T00:07:02.150Z,85.20
2023-03-26T00:08:23.321Z,85.20
2023-03-26T00:09:44.127Z,85.20
2023-03-26T00:11:09.677Z,85.40
2023-03-26T00:12:30.301Z,85.30
2023-03-26T00:13:51.132Z,85.20
2023-03-26T00:15:11.877Z,85.30
2023-03-26T00:16:33.038Z,85.50
2023-03-26T00:17:53.475Z,85.40
2023-03-26T00:19:14.313Z,85.50
2023-03-26T00:20:35.045Z,85.50
2023-03-26T00:21:55.809Z,85.50
2023-03-26T00:23:16.749Z,85.70
2023-03-26T00:24:37.276Z,86.00
2023-03-26T00:25:57.950Z,85.90
2023-03-26T00:27:20.103Z,86.00
2023-03-26T00:28:42.014Z,86.00
2023-03-26T00:30:02.537Z,86.10
2023-03-26T00:31:23.735Z,86.20
2023-03-26T00:32:44.742Z,86.40
2023-03-26T00:34:14.442Z,86.20
2023-03-26T00:35:36.105Z,86.40
2023-03-26T00:36:56.792Z,86.30
2023-03-26T00:38:17.282Z,86.30
2023-03-26T00:39:37.833Z,86.30
2023-03-26T00:41:00.699Z,86.40
2023-03-26T00:42:22.562Z,86.40
2023-03-26T00:43:43.826Z,86.40
2023-03-26T00:45:04.846Z,86.30
2023-03-26T00:46:29.615Z,86.30
2023-03-26T00:47:50.561Z,86.40
2023-03-26T00:49:12.085Z,86.40
2023-03-26T00:50:32.581Z,86.10
2023-03-26T00:51:53.433Z,85.90
2023-03-26T00:53:15.083Z,85.80
2023-03-26T00:54:36.002Z,85.80
2023-03-26T00:55:56.644Z,85.80
2023-03-26T00:57:28.999Z,85.70
2023-03-26T00:58:57.074Z,85.80
2023-03-26T01:00:19.029Z,85.70
2023-03-26T01:01:40.278Z,85.90
2023-03-26T01:03:01.234Z,86.00
2023-03-26T01:04:28.544Z,85.90
2023-03-26T01:05:50.856Z,86.10
2023-03-26T01:07:13.664Z,86.10
2023-03-26T01:08:37.197Z,86.20
2023-03-26T01:09:58.763Z,86.40
2023-03-26T01:11:21.895Z,86.40
2023-03-26T01:12:42.558Z,86.50
2023-03-26T01:14:07.187Z,86.50
2023-03-26T01:15:27.587Z,86.50
2023-03-26T01:16:51.275Z,86.30
2023-03-26T01:18:11.458Z,86.30
2023-03-26T01:19:37.759Z,86.80
2023-03-26T01:20:58.649Z,86.80
2023-03-26T01:22:21.301Z,86.90
2023-03-26T01:23:45.650Z,86.70
2023-03-26T01:25:08.512Z,86.90
2023-03-26T01:26:50.538Z,86.80
2023-03-26T01:28:11.411Z,86.80
2023-03-26T01:29:35.177Z,86.80
2023-03-26T01:31:00.104Z,86.80
2023-03-26T01:32:28.036Z,86.70
2023-03-26T01:33:52.336Z,86.70
2023-03-26T01:35:23.424Z,86.70
2023-03-26T01:36:50.334Z,86.80
2023-03-26T01:38:19.305Z,86.80
2023-03-26T01:39:44.561Z,86.80
2023-03-26T01:41:08.885Z,87.30
2023-03-26T01:42:35.988Z,87.50
2023-03-26T01:44:03.037Z,87.60
2023-03-26T01:45:26.477Z,87.80
2023-03-26T01:46:48.081Z,88.00
2023-03-26T01:48:09.239Z,88.20
2023-03-26T01:49:30.216Z,88.50
2023-03-26T01:50:50.952Z,88.50
2023-03-26T01:52:14.995Z,88.50
2023-03-26T01:53:37.918Z,88.80
2023-03-26T01:54:58.897Z,88.50
2023-03-26T01:56:26.728Z,88.50
2023-03-26T01:57:54.783Z,88.40
2023-03-26T01:59:27.933Z,88.40
2023-03-26T02:00:53.879Z,88.50
2023-03-26T02:02:17.441Z,88.70
2023-03-26T02:03:41.311Z,88.60
2023-03-26T02:05:07.593Z,88.60
2023-03-26T02:06:32.141Z,88.60
2023-03-26T02:07:56.223Z,88.60
2023-03-26T02:09:18.760Z,89.00
2023-03-26T02:10:42.097Z,89.00
2023-03-26T02:12:04.977Z,89.10
2023-03-26T02:13:26.547Z,89.40
2023-03-26T02:14:47.442Z,89.50
2023-03-26T02:16:09.960Z,89.50
2023-03-26T02:17:31.083Z,89.70
2023-03-26T02:18:51.855Z,89.70
2023-03-26T02:20:13.969Z,89.80
2023-03-26T02:21:34.544Z,89.90
2023-03-26T02:22:55.706Z,89.90
2023-03-26T02:24:17.144Z,89.90
2023-03-26T02:25:37.964Z,89.90
2023-03-26T02:26:58.368Z,89.90
2023-03-26T02:28:20.371Z,89.90
2023-03-26T02:29:41.287Z,89.90
2023-03-26T02:31:03.348Z,89.90
2023-03-26T02:32:24.375Z,89.90
2023-03-26T02:33:44.841Z,89.90
2023-03-26T02:35:06.548Z,89.90
2023-03-26T02:36:27.642Z,89.90
2023-03-26T02:37:48.486Z,89.90
2023-03-26T02:39:09.517Z,89.90
2023-03-26T02:40:30.192Z,89.70
2023-03-26T02:41:50.866Z,89.60
2023-03-26T02:43:11.432Z,89.40
2023-03-26T02:44:33.548Z,89.30
2023-03-26T02:45:54.642Z,89.30
2023-03-26T02:47:15.443Z,89.40
2023-03-26T02:48:36.387Z,89.20
2023-03-26T02:49:57.090Z,89.20
2023-03-26T02:51:18.037Z,89.30
2023-03-26T02:52:39.051Z,89.30
2023-03-26T02:54:00.398Z,89.20
2023-03-26T02:55:21.167Z,88.90
2023-03-26T02:56:42.168Z,89.10
2023-03-26T02:58:02.616Z,88.80
2023-03-26T02:59:23.344Z,89.00
2023-03-26T03:00:45.806Z,88.60
2023-03-26T03:02:06.315Z,88.40
2023-03-26T03:03:27.823Z,88.10
2023-03-26T03:04:48.759Z,88.10
2023-03-26T03:06:09.684Z,88.10
2023-03-26T03:07:30.272Z,88.00
2023-03-26T03:08:50.904Z,87.90
2023-03-26T03:10:11.889Z,87.90
2023-03-26T03:11:32.931Z,88.10
2023-03-26T03:12:54.076Z,88.00
2023-03-26T03:14:14.674Z,87.70
2023-03-26T03:15:35.681Z,87.80
2023-03-26T03:16:57.507Z,87.70
2023-03-26T03:18:18.456Z,87.70
2023-03-26T03:19:39.053Z,87.80
2023-03-26T03:20:59.778Z,87.80
2023-03-26T03:22:20.613Z,87.80
2023-03-26T03:23:41.206Z,87.70
2023-03-26T03:25:02.260Z,87.80
2023-03-26T03:26:24.874Z,87.50
2023-03-26T03:27:45.679Z,87.90
2023-03-26T03:29:06.479Z,87.90
2023-03-26T03:30:27.456Z,87.80
2023-03-26T03:31:48.760Z,87.80
2023-03-26T03:33:10.734Z,87.80
2023-03-26T03:34:31.267Z,87.70
2023-03-26T03:35:52.166Z,87.60
2023-03-26T03:37:12.801Z,87.80
2023-03-26T03:38:33.558Z,87.80
2023-03-26T03:39:54.135Z,87.70
2023-03-26T03:41:15.674Z,87.50
2023-03-26T03:42:36.641Z,87.50
2023-03-26T03:43:57.289Z,87.40
2023-03-26T03:45:18.269Z,87.40
2023-03-26T03:46:39.160Z,87.30
2023-03-26T03:47:59.970Z,87.10
2023-03-26T03:49:21.932Z,86.80
2023-03-26T03:50:42.902Z,86.60
2023-03-26T03:52:04.302Z,86.50
2023-03-26T03:53:25.912Z,86.50
2023-03-26T03:54:46.444Z,86.40
2023-03-26T03:56:08.015Z,86.10
2023-03-26T03:57:28.674Z,85.80
2023-03-26T03:58:49.490Z,85.90
2023-03-26T04:00:11.874Z,85.90
2023-03-26T04:01:32.698Z,85.90
2023-03-26T04:02:53.868Z,85.90
2023-03-26T04:04:14.657Z,86.00
2023-03-26T04:05:36.687Z,85.80
2023-03-26T04:06:57.151Z,85.80
2023-03-26T04:08:18.128Z,85.60
2023-03-26T04:09:38.756Z,85.60
2023-03-26T04:10:59.609Z,85.50
2023-03-26T04:12:20.838Z,85.60
2023-03-26T04:13:41.198Z,85.30
2023-03-26T04:15:02.363Z,85.20
2023-03-26T04:16:23.195Z,85.10
2023-03-26T04:17:44.235Z,85.10
2023-03-26T04:19:05.130Z,85.20
2023-03-26T04:20:25.907Z,85.20
2023-03-26T04:21:48.188Z,85.00
2023-03-26T04:23:08.853Z,85.00
2023-03-26T04:24:29.594Z,85.00
2023-03-26T04:25:52.133Z,84.90
2023-03-26T04:27:15.473Z,84.90
2023-03-26T04:28:42.236Z,84.90
2023-03-26T04:30:04.672Z,85.00
2023-03-26T04:31:26.545Z,84.90
2023-03-26T04:32:47.040Z,84.80
2023-03-26T04:34:08.726Z,84.70
2023-03-26T04:35:29.819Z,84.60
2023-03-26T04:36:52.152Z,84.80
2023-03-26T04:38:12.543Z,85.00
2023-03-26T04:39:33.317Z,84.90
2023-03-26T04:40:54.324Z,84.90
2023-03-26T04:42:15.172Z,85.00
2023-03-26T04:43:35.723Z,85.20
2023-03-26T04:44:56.609Z,85.40
2023-03-26T04:46:17.543Z,85.50
2023-03-26T04:47:38.043Z,85.60
2023-03-26T04:48:59.617Z,85.60
2023-03-26T04:50:20.246Z,85.60
2023-03-26T04:51:41.131Z,86.00
2023-03-26T04:53:03.308Z,86.10
2023-03-26T04:54:23.860Z,86.40
2023-03-26T04:55:49.141Z,86.40
2023-03-26T04:57:15.162Z,86.10
2023-03-26T04:58:35.673Z,86.30
2023-03-26T04:59:56.492Z,87.00
2023-03-26T05:01:17.136Z,87.10
2023-03-26T05:02:37.499Z,87.10
2023-03-26T05:03:58.458Z,87.30
2023-03-26T05:05:19.419Z,87.30
2023-03-26T05:06:40.662Z,87.20
2023-03-26T05:08:01.188Z,87.40
2023-03-26T05:09:23.350Z,87.40
2023-03-26T05:10:44.486Z,87.40
2023-03-26T05:12:05.473Z,87.80
2023-03-26T05:13:25.978Z,88.00
2023-03-26T05:14:46.742Z,88.30
2023-03-26T05:16:08.387Z,88.50
2023-03-26T05:17:29.034Z,88.60
2023-03-26T05:18:49.481Z,88.90
2023-03-26T05:20:16.863Z,88.90
2023-03-26T05:21:37.629Z,89.00
2023-03-26T05:22:58.050Z,89.70
2023-03-26T05:24:18.704Z,89.80
2023-03-26T05:25:40.768Z,89.70
2023-03-26T05:27:01.317Z,89.80
2023-03-26T05:28:23.385Z,89.60
2023-03-26T05:29:44.384Z,89.40
2023-03-26T05:31:05.716Z,89.30
2023-03-26T05:32:26.550Z,89.40
2023-03-26T05:33:47.195Z,89.10
2023-03-26T05:35:08.391Z,89.10
2023-03-26T05:36:29.498Z,89.20
2023-03-26T05:37:49.914Z,89.00
2023-03-26T05:39:10.798Z,89.00
2023-03-26T05:40:31.486Z,89.40
2023-03-26T05:41:53.744Z,89.20
2023-03-26T05:43:14.401Z,89.20
2023-03-26T05:44:35.055Z,88.90
2023-03-26T05:45:55.700Z,89.20
2023-03-26T05:47:16.401Z,89.50
2023-03-26T05:48:36.818Z,89.20
2023-03-26T05:49:57.513Z,89.40
2023-03-26T05:51:18.496Z,89.60
2023-03-26T05:52:39.483Z,89.50
2023-03-26T05:54:00.009Z,89.30
2023-03-26T05:55:20.647Z,89.40
2023-03-26T05:56:41.431Z,89.50
2023-03-26T05:58:04.190Z,89.50
2023-03-26T05:59:24.842Z,89.50
2023-03-26T06:00:45.210Z,89.80
2023-03-26T06:02:06.103Z,89.80
2023-03-26T06:03:27.122Z,89.90
2023-03-26T06:04:48.315Z,89.90
2023-03-26T06:06:10.053Z,89.90
2023-03-26T06:07:30.370Z,89.70
2023-03-26T06:09:01.831Z,89.80
2023-03-26T06:10:23.659Z,89.90
2023-03-26T06:11:44.172Z,89.60
2023-03-26T06:13:06.340Z,89.90
2023-03-26T06:14:26.975Z,89.80
2023-03-26T06:15:47.764Z,89.90
2023-03-26T06:17:08.371Z,89.90
2023-03-26T06:18:28.974Z,89.90
2023-03-26T06:19:49.864Z,89.90
2023-03-26T06:21:10.777Z,89.90
2023-03-26T06:22:31.828Z,89.90
2023-03-26T06:23:52.716Z,89.80
2023-03-26T06:25:13.621Z,89.90
2023-03-26T06:26:34.726Z,89.90
2023-03-26T06:27:55.428Z,89.70
2023-03-26T06:29:17.726Z,89.70
2023-03-26T06:30:38.632Z,89.50
2023-03-26T06:32:09.136Z,89.70
2023-03-26T06:33:33.344Z,89.90
2023-03-26T06:34:54.117Z,89.80
2023-03-26T06:36:14.872Z,89.80
2023-03-26T06:37:35.691Z,89.90
2023-03-26T06:38:56.458Z,89.90
2023-03-26T06:40:17.450Z,89.90
2023-03-26T06:41:37.925Z,89.90
2023-03-26T06:43:06.970Z,89.90
2023-03-26T06:44:31.621Z,89.90
2023-03-26T06:45:52.696Z,89.90
2023-03-26T06:47:13.481Z,89.90
2023-03-26T06:48:34.247Z,89.90
2023-03-26T06:49:55.095Z,89.70
2023-03-26T06:51:15.690Z,89.90
2023-03-26T06:52:36.651Z,89.90
2023-03-26T06:53:57.409Z,89.90
2023-03-26T06:55:18.481Z,89.90
2023-03-26T06:56:39.073Z,89.90
2023-03-26T06:57:59.712Z,89.70
2023-03-26T06:59:20.448Z,89.90
2023-03-26T07:00:42.650Z,89.60
2023-03-26T07:02:04.275Z,89.30
2023-03-26T07:03:25.364Z,89.70
2023-03-26T07:04:45.967Z,89.90
2023-03-26T07:06:06.873Z,89.90
2023-03-26T07:07:27.580Z,89.80
2023-03-26T07:08:48.452Z,89.80
2023-03-26T07:10:10.279Z,89.80
2023-03-26T07:11:31.127Z,89.80
2023-03-26T07:12:51.693Z,89.90
2023-03-26T07:14:12.465Z,89.80
2023-03-26T07:15:33.389Z,89.90
2023-03-26T07:16:55.257Z,89.90
2023-03-26T07:18:16.241Z,89.90
2023-03-26T07:19:36.714Z,89.90
2023-03-26T07:20:58.044Z,89.90
2023-03-26T07:22:20.968Z,89.90
2023-03-26T07:23:42.380Z,89.90
2023-03-26T07:25:03.707Z,89.90
2023-03-26T07:26:29.080Z,89.90
2023-03-26T07:27:58.923Z,89.90
2023-03-26T07:29:25.090Z,89.90
2023-03-26T07:30:56.111Z,89.90
2023-03-26T07:32:22.426Z,89.90
2023-03-26T07:33:47.468Z,89.90
2023-03-26T07:35:13.967Z,89.90
2023-03-26T07:36:37.260Z,89.90
2023-03-26T07:38:14.067Z,89.90
2023-03-26T07:39:42.772Z,89.90
2023-03-26T07:41:08.051Z,89.90
2023-03-26T07:42:42.929Z,89.90
2023-03-26T07:44:20.069Z,89.90
2023-03-26T07:45:41.951Z,89.90
2023-03-26T07:47:05.819Z,89.90
2023-03-26T07:48:31.893Z,89.90
2023-03-26T07:49:54.044Z,89.90
2023-03-26T07:51:15.330Z,89.90
2023-03-26T07:52:36.422Z,89.90
2023-03-26T07:53:57.788Z,89.90
2023-03-26T07:55:19.270Z,89.90
2023-03-26T07:56:43.110Z,89.90
2023-03-26T07:58:12.913Z,89.90
2023-03-26T07:59:36.889Z,89.90
2023-03-26T08:01:01.303Z,89.90
2023-03-26T08:02:39.292Z,89.90
2023-03-26T08:04:26.628Z,89.90
2023-03-26T08:05:52.324Z,89.90
2023-03-26T08:07:20.887Z,89.90
2023-03-26T08:08:48.402Z,89.90
2023-03-26T08:10:14.670Z,89.90
2023-03-26T08:11:44.553Z,89.90
2023-03-26T08:13:16.032Z,89.90
2023-03-26T08:14:48.007Z,89.90
2023-03-26T08:16:09.425Z,89.90
2023-03-26T08:17:34.868Z,89.90
2023-03-26T08:19:02.491Z,89.90
2023-03-26T08:20:37.011Z,89.90
2023-03-26T08:22:00.688Z,89.90
2023-03-26T08:23:24.468Z,89.90
2023-03-26T08:24:56.132Z,89.90
2023-03-26T08:26:19.397Z,89.90
2023-03-26T08:27:41.440Z,89.90
2023-03-26T08:29:10.640Z,89.90
2023-03-26T08:30:31.846Z,89.90
2023-03-26T08:31:53.843Z,89.90
2023-03-26T08:33:17.188Z,89.90
2023-03-26T08:34:37.653Z,89.90
2023-03-26T08:36:00.024Z,89.90
2023-03-26T08:37:20.590Z,89.90
2023-03-26T08:38:41.172Z,89.90
2023-03-26T08:40:02.011Z,89.90
2023-03-26T08:42:14.520Z,89.90
2023-03-26T08:44:11.214Z,89.90
2023-03-26T08:45:55.695Z,89.90
2023-03-26T08:47:58.728Z,89.90
2023-03-26T08:49:51.138Z,89.90
2023-03-26T08:51:38.688Z,89.90
2023-03-26T08:53:35.767Z,89.90
2023-03-26T08:55:27.966Z,89.90
2023-03-26T08:56:53.680Z,89.90
2023-03-26T08:59:03.156Z,89.90
2023-03-26T09:00:50.741Z,89.90
2023-03-26T09:02:47.341Z,89.90
2023-03-26T09:04:35.851Z,89.90
2023-03-26T09:06:27.339Z,89.90
2023-03-26T09:08:32.747Z,89.90
2023-03-26T09:10:20.819Z,89.90
2023-03-26T09:12:15.278Z,89.90
2023-03-26T09:14:04.078Z,89.90
2023-03-26T09:15:48.314Z,89.90
2023-03-26T09:17:29.186Z,89.90
2023-03-26T09:19:52.589Z,89.90
2023-03-26T09:21:43.520Z,89.90
2023-03-26T09:23:21.753Z,89.90
2023-03-26T09:25:20.135Z,89.90
2023-03-26T09:26:49.673Z,89.90
2023-03-26T09:28:35.627Z,89.90
2023-03-26T09:30:21.516Z,89.90
2023-03-26T09:32:15.657Z,89.90
2023-03-26T09:33:57.421Z,89.90
2023-03-26T09:35:50.520Z,89.90
2023-03-26T09:37:26.393Z,89.90
2023-03-26T09:38:53.008Z,89.90
2023-03-26T09:40:18.097Z,89.90
2023-03-26T09:41:44.368Z,89.90
2023-03-26T09:43:28.420Z,89.90
2023-03-26T09:45:16.412Z,89.90
2023-03-26T09:46:44.114Z,89.90
2023-03-26T09:48:42.430Z,89.90
2023-03-26T09:50:27.954Z,89.90
2023-03-26T09:51:59.474Z,89.90
2023-03-26T09:53:46.219Z,89.90
2023-03-26T09:55:33.764Z,89.90
2023-03-26T09:56:58.219Z,89.90
2023-03-26T09:58:48.199Z,89.90
2023-03-26T10:00:21.965Z,89.90
2023-03-26T10:01:44.765Z,89.90
2023-03-26T10:03:26.872Z,89.90
2023-03-26T10:05:02.402Z,89.90
2023-03-26T10:06:36.748Z,89.90
2023-03-26T10:08:06.956Z,89.90
2023-03-26T10:09:35.758Z,89.90
2023-03-26T10:11:01.694Z,89.90
2023-03-26T10:12:28.912Z,89.90
2023-03-26T10:14:00.551Z,89.90
2023-03-26T10:15:32.205Z,89.90
2023-03-26T10:17:02.336Z,89.90
2023-03-26T10:18:32.011Z,89.90
2023-03-26T10:20:03.640Z,89.90
2023-03-26T10:21:28.077Z,89.90
2023-03-26T10:22:56.888Z,89.90
2023-03-26T10:24:29.540Z,89.90
2023-03-26T10:26:04.377Z,89.90
2023-03-26T10:27:35.020Z,89.90
2023-03-26T10:29:14.837Z,89.90
2023-03-26T10:30:54.793Z,89.90
2023-03-26T10:32:23.233Z,89.90
2023-03-26T10:33:53.256Z,89.90
2023-03-26T10:35:23.373Z,89.90
2023-03-26T10:36:48.823Z,89.90
2023-03-26T10:38:16.386Z,89.90
2023-03-26T10:40:07.781Z,89.90
2023-03-26T10:41:38.217Z,89.90
2023-03-26T10:43:19.262Z,89.90
2023-03-26T10:44:53.634Z,89.90
2023-03-26T10:46:41.549Z,89.90
2023-03-26T10:48:27.960Z,89.90
2023-03-26T10:50:22.866Z,89.90
2023-03-26T10:51:47.270Z,89.90
2023-03-26T10:53:10.126Z,89.90
2023-03-26T10:54:39.510Z,89.90
2023-03-26T10:56:06.765Z,89.90
2023-03-26T10:57:36.965Z,89.90
2023-03-26T10:58:57.877Z,89.90
2023-03-26T11:00:21.122Z,89.90
2023-03-26T11:01:46.140Z,89.90
2023-03-26T11:03:26.423Z,89.90
2023-03-26T11:04:53.333Z,89.90
2023-03-26T11:06:34.023Z,89.90
2023-03-26T11:08:01.729Z,89.90
2023-03-26T11:09:31.410Z,89.90
2023-03-26T11:10:57.217Z,89.90
2023-03-26T11:12:27.005Z,89.90
2023-03-26T11:13:56.632Z,89.90
2023-03-26T11:15:22.829Z,89.90
2023-03-26T11:16:53.176Z,89.90
2023-03-26T11:18:18.491Z,89.90
2023-03-26T11:19:42.926Z,89.90
2023-03-26T11:21:19.249Z,89.90
2023-03-26T11:22:50.992Z,89.90
2023-03-26T11:24:39.528Z,89.90
2023-03-26T11:26:07.960Z,89.90
2023-03-26T11:27:40.309Z,89.90
2023-03-26T11:29:30.758Z,89.90
2023-03-26T11:30:55.463Z,89.90
2023-03-26T11:32:20.763Z,89.90
2023-03-26T11:33:45.626Z,89.90
2023-03-26T11:35:15.420Z,89.90
2023-03-26T11:36:39.469Z,89.90
2023-03-26T11:38:03.751Z,89.90
2023-03-26T11:39:26.569Z,89.90
2023-03-26T11:40:49.443Z,89.90
2023-03-26T11:42:12.897Z,89.90
2023-03-26T11:43:35.993Z,89.90
2023-03-26T11:45:00.764Z,89.90
2023-03-26T11:46:23.861Z,89.90
2023-03-26T11:47:46.759Z,89.90
2023-03-26T11:49:09.800Z,89.90
2023-03-26T11:50:32.498Z,89.90
2023-03-26T11:51:53.397Z,89.90
2023-03-26T11:53:15.898Z,89.90
2023-03-26T11:54:36.374Z,89.90
2023-03-26T11:56:01.136Z,89.90
2023-03-26T11:57:24.319Z,89.90
2023-03-26T11:58:50.288Z,89.90
2023-03-26T12:00:15.327Z,89.90
2023-03-26T12:01:44.764Z,89.90
2023-03-26T12:03:15.179Z,89.90
2023-03-26T12:04:37.617Z,89.90
2023-03-26T12:05:59.450Z,89.90
2023-03-26T12:07:21.601Z,89.90
2023-03-26T12:08:43.671Z,89.90
2023-03-26T12:10:18.079Z,89.90
2023-03-26T12:11:40.469Z,89.90
2023-03-26T12:13:03.443Z,89.90
2023-03-26T12:14:25.771Z,89.90
2023-03-26T12:15:50.200Z,89.90
2023-03-26T12:17:13.787Z,89.90
2023-03-26T12:18:34.661Z,89.90
2023-03-26T12:19:55.342Z,89.90
2023-03-26T12:21:17.806Z,89.90
2023-03-26T12:22:40.686Z,89.90
2023-03-26T12:24:04.155Z,89.90
2023-03-26T12:25:25.904Z,89.90
2023-03-26T12:26:47.297Z,89.90
2023-03-26T12:28:18.100Z,89.90
2023-03-26T12:29:39.111Z,89.90
2023-03-26T12:31:02.581Z,89.90
2023-03-26T12:32:29.600Z,89.20
2023-03-26T12:34:11.966Z,89.90
2023-03-26T12:35:35.144Z,89.90
2023-03-26T12:36:57.359Z,89.90
2023-03-26T12:38:23.600Z,89.90
2023-03-26T12:40:08.930Z,89.90
2023-03-26T12:44:43.588Z,88.90
2023-03-26T12:44:48.896Z,89.20
2023-03-26T12:45:06.818Z,89.00
2023-03-26T12:47:55.646Z,89.10
2023-03-26T12:48:14.007Z,88.80
2023-03-26T12:49:35.725Z,88.10
2023-03-26T12:51:07.290Z,87.40
2023-03-26T12:52:46.079Z,87.10
2023-03-26T12:54:20.073Z,87.40
2023-03-26T12:55:43.323Z,86.70
2023-03-26T12:57:19.432Z,86.50
2023-03-26T12:59:00.336Z,84.90
2023-03-26T13:00:28.562Z,85.90
2023-03-26T13:01:56.269Z,83.60
2023-03-26T13:03:34.613Z,85.00
2023-03-26T13:05:07.280Z,84.30
2023-03-26T13:06:58.932Z,84.20
2023-03-26T13:08:48.302Z,83.40
2023-03-26T13:10:39.034Z,83.20
2023-03-26T13:12:07.779Z,83.50
2023-03-26T13:13:49.778Z,80.70
2023-03-26T13:15:19.725Z,80.70
2023-03-26T13:16:47.053Z,80.70
2023-03-26T13:18:18.153Z,80.10
2023-03-26T13:19:42.408Z,81.60
2023-03-26T13:21:06.845Z,80.60
2023-03-26T13:22:36.460Z,81.00
2023-03-26T13:24:02.343Z,82.50
2023-03-26T13:25:31.538Z,82.00
2023-03-26T13:27:03.245Z,79.80
2023-03-26T13:28:31.339Z,80.60
2023-03-26T13:29:57.113Z,80.50
2023-03-26T13:31:22.039Z,79.20
2023-03-26T13:32:54.361Z,78.20
2023-03-26T13:34:24.446Z,78.70
2023-03-26T13:35:50.084Z,78.40
2023-03-26T13:37:14.666Z,79.30
2023-03-26T13:38:42.714Z,78.10
2023-03-26T13:40:26.310Z,77.40
2023-03-26T13:42:02.437Z,78.50
2023-03-26T13:43:31.071Z,78.10
2023-03-26T13:45:04.532Z,77.00
2023-03-26T13:46:31.169Z,77.80
2023-03-26T13:47:54.039Z,77.40
2023-03-26T13:49:19.299Z,78.00
2023-03-26T13:50:42.671Z,74.20
2023-03-26T13:52:06.954Z,75.70
2023-03-26T13:53:34.083Z,75.90
2023-03-26T13:55:12.514Z,75.40
2023-03-26T13:56:36.689Z,75.20
2023-03-26T13:58:03.588Z,76.40
2023-03-26T13:59:29.155Z,74.70
2023-03-26T14:00:55.206Z,73.20
2023-03-26T14:02:22.247Z,73.60
2023-03-26T14:03:52.116Z,73.10
2023-03-26T14:05:19.641Z,71.90
2023-03-26T14:06:45.808Z,73.70
2023-03-26T14:08:12.368Z,73.60
2023-03-26T14:09:39.103Z,72.70
2023-03-26T14:11:03.848Z,72.00
2023-03-26T14:12:32.010Z,72.10
2023-03-26T14:13:56.236Z,70.90
2023-03-26T14:15:19.682Z,72.60
2023-03-26T14:16:42.112Z,71.30
2023-03-26T14:18:20.745Z,71.00
2023-03-26T14:20:07.840Z,71.50
2023-03-26T14:21:52.955Z,71.10
2023-03-26T14:23:27.429Z,69.90
2023-03-26T14:25:00.826Z,70.40
2023-03-26T14:26:31.338Z,71.60
2023-03-26T14:28:02.282Z,71.30
2023-03-26T14:29:56.966Z,69.30
2023-03-26T14:31:21.595Z,70.70
2023-03-26T14:32:52.508Z,70.60
2023-03-26T14:34:34.388Z,70.20
2023-03-26T14:35:59.519Z,70.70
2023-03-26T14:38:00.625Z,72.60
2023-03-26T14:39:37.750Z,70.90
2023-03-26T14:41:06.372Z,69.90
2023-03-26T14:42:37.379Z,71.60
2023-03-26T14:44:52.029Z,69.00
2023-03-26T14:46:21.831Z,69.70
2023-03-26T14:47:48.770Z,68.80
2023-03-26T14:49:29.929Z,71.40
2023-03-26T14:50:57.465Z,71.20
2023-03-26T14:52:22.731Z,68.70
2023-03-26T14:53:48.420Z,69.10
2023-03-26T14:55:15.871Z,67.60
2023-03-26T14:57:11.839Z,67.10
2023-03-26T14:59:10.041Z,68.30
2023-03-26T15:01:07.152Z,68.00
2023-03-26T15:03:04.165Z,67.90
2023-03-26T15:04:49.617Z,68.30
2023-03-26T15:06:40.718Z,69.80
2023-03-26T15:08:39.797Z,69.60
2023-03-26T15:10:24.707Z,69.20
2023-03-26T15:11:51.448Z,69.40
2023-03-26T15:13:49.767Z,68.40
2023-03-26T15:15:40.565Z,68.40
2023-03-26T15:17:42.958Z,67.60
2023-03-26T15:19:29.573Z,68.30
2023-03-26T15:21:21.237Z,68.30
2023-03-26T15:23:23.100Z,67.70
2023-03-26T15:25:07.420Z,67.90
2023-03-26T15:26:59.501Z,67.10
2023-03-26T15:28:36.189Z,66.60
2023-03-26T15:30:42.665Z,67.30
2023-03-26T15:32:31.213Z,67.10
2023-03-26T15:34:28.767Z,68.30
2023-03-26T15:36:03.991Z,68.10
2023-03-26T15:37:50.972Z,67.40
2023-03-26T15:39:59.077Z,67.40
2023-03-26T15:41:26.379Z,67.60
2023-03-26T15:42:55.302Z,67.40
2023-03-26T15:44:43.799Z,68.10
2023-03-26T15:46:25.553Z,66.90
2023-03-26T15:47:56.852Z,67.50
2023-03-26T15:49:21.846Z,68.10
2023-03-26T15:50:53.517Z,66.70
2023-03-26T15:52:21.283Z,66.20
2023-03-26T15:53:48.383Z,66.90
2023-03-26T15:55:21.942Z,66.40
2023-03-26T15:57:08.496Z,65.10
2023-03-26T15:58:33.489Z,66.00
2023-03-26T16:00:19.910Z,66.70
2023-03-26T16:01:50.203Z,66.00
2023-03-26T16:03:23.203Z,65.40
2023-03-26T16:04:50.457Z,64.70
2023-03-26T16:06:30.018Z,66.40
2023-03-26T16:07:57.485Z,65.70
2023-03-26T16:09:36.671Z,66.10
2023-03-26T16:10:59.153Z,66.80
2023-03-26T16:12:35.920Z,64.90
2023-03-26T16:14:11.455Z,64.30
2023-03-26T16:15:33.051Z,63.30
2023-03-26T16:16:57.195Z,64.50
2023-03-26T16:18:32.490Z,64.00
2023-03-26T16:19:59.690Z,62.90
2023-03-26T16:21:44.455Z,62.30
2023-03-26T16:23:21.350Z,63.40
2023-03-26T16:24:45.948Z,63.60
2023-03-26T16:26:15.806Z,63.10
2023-03-26T16:27:37.031Z,63.60
2023-03-26T16:29:16.327Z,63.20
2023-03-26T16:30:37.569Z,62.60
2023-03-26T16:32:15.782Z,61.90
2023-03-26T16:33:38.015Z,62.00
2023-03-26T16:35:00.124Z,61.80
2023-03-26T16:36:26.949Z,62.20
2023-03-26T16:37:49.425Z,62.20
2023-03-26T16:39:19.726Z,61.60
2023-03-26T16:40:51.828Z,61.30
2023-03-26T16:42:36.582Z,60.90
2023-03-26T16:44:07.129Z,63.20
2023-03-26T16:45:33.812Z,62.20
2023-03-26T16:46:57.832Z,61.80
2023-03-26T16:48:25.788Z,62.70
2023-03-26T16:50:10.572Z,62.90
2023-03-26T16:51:51.388Z,63.10
2023-03-26T16:53:26.017Z,64.00
2023-03-26T16:54:50.413Z,63.80
2023-03-26T16:56:17.073Z,64.40
2023-03-26T16:57:43.975Z,64.90
2023-03-26T16:59:09.693Z,65.00
2023-03-26T17:00:43.260Z,64.60
2023-03-26T17:02:07.615Z,66.40
2023-03-26T17:03:49.794Z,65.80
2023-03-26T17:05:18.343Z,64.10
2023-03-26T17:07:13.088Z,65.50
2023-03-26T17:08:44.605Z,65.00
2023-03-26T17:10:13.726Z,64.20
2023-03-26T17:11:46.677Z,64.70
2023-03-26T17:13:14.542Z,65.70
2023-03-26T17:14:45.754Z,64.70
2023-03-26T17:16:14.501Z,65.20
2023-03-26T17:17:46.633Z,64.30
2023-03-26T17:19:17.648Z,64.20
2023-03-26T17:20:42.814Z,65.60
2023-03-26T17:22:08.420Z,64.80
2023-03-26T17:23:39.063Z,63.10
2023-03-26T17:25:04.752Z,62.60
2023-03-26T17:26:28.660Z,62.00
2023-03-26T17:27:55.300Z,62.70
2023-03-26T17:29:28.681Z,62.20
2023-03-26T17:30:57.470Z,62.90
2023-03-26T17:32:19.754Z,62.10
2023-03-26T17:33:40.447Z,62.40
2023-03-26T17:35:02.396Z,61.50
2023-03-26T17:36:41.693Z,62.40
2023-03-26T17:38:02.982Z,61.30
2023-03-26T17:40:11.468Z,62.00
2023-03-26T17:41:56.161Z,61.90
2023-03-26T17:43:42.233Z,63.10
2023-03-26T17:45:03.133Z,63.20
2023-03-26T17:46:32.183Z,62.70
2023-03-26T17:47:57.140Z,63.80
2023-03-26T17:49:19.199Z,63.80
2023-03-26T17:50:44.740Z,64.20
2023-03-26T17:52:16.467Z,64.70
2023-03-26T17:53:36.671Z,65.10
2023-03-26T17:54:57.179Z,64.30
2023-03-26T17:56:21.262Z,64.50
2023-03-26T17:57:43.587Z,64.70
2023-03-26T17:59:11.521Z,64.10
2023-03-26T18:00:36.176Z,63.50
2023-03-26T18:01:59.185Z,63.10
2023-03-26T18:03:28.374Z,62.60
2023-03-26T18:04:54.148Z,63.30
2023-03-26T18:06:24.725Z,63.70
2023-03-26T18:08:13.852Z,63.70
2023-03-26T18:09:47.434Z,64.10
2023-03-26T18:11:37.049Z,64.10
2023-03-26T18:13:15.489Z,64.60
2023-03-26T18:14:57.303Z,64.60
2023-03-26T18:16:19.604Z,64.10
2023-03-26T18:17:43.655Z,64.60
2023-03-26T18:19:11.388Z,64.90
2023-03-26T18:20:31.866Z,64.80
2023-03-26T18:21:53.912Z,64.40
2023-03-26T18:23:22.460Z,64.90
2023-03-26T18:24:44.384Z,65.60
2023-03-26T18:26:11.465Z,65.40
2023-03-26T18:27:36.294Z,65.10
2023-03-26T18:29:10.758Z,65.60
2023-03-26T18:30:31.626Z,65.20
2023-03-26T18:31:56.953Z,66.10
2023-03-26T18:33:17.720Z,65.90
2023-03-26T18:34:45.881Z,65.20
2023-03-26T18:36:11.218Z,65.20
2023-03-26T18:37:33.472Z,65.10
2023-03-26T18:38:56.782Z,65.20
2023-03-26T18:40:19.602Z,64.60
2023-03-26T18:41:41.361Z,64.20
2023-03-26T18:43:02.261Z,63.80
2023-03-26T18:44:23.263Z,63.80
2023-03-26T18:45:44.990Z,63.00
2023-03-26T18:47:06.252Z,63.40
2023-03-26T18:48:28.309Z,63.70
2023-03-26T18:49:53.916Z,63.80
2023-03-26T18:51:14.902Z,63.40
2023-03-26T18:52:35.542Z,63.10